Latest Coastal Weather Observations for Lockhart River

IDQ60701

Issued at 6:02 pm EST Wednesday 8 February 2023 (issued every 10 minutes, with the page automatically refreshed every 10 minutes)

About coastal observations | Map of coastal stations | Coastal observations for QLD | Marine services | Other Formats
Station Details ID: 028008 Name: LOCKHART RIVER AIRPORT Lat: -12.79 Lon: 143.30 Height: 18.5 m
Data from the previous 72 hours. | See also: Recent months at Lockhart River
Date/Time
EST
Wind Sea
Height
m
Swell Vis
km
Cloud Weather Temp
°C
Press
MSL
hPa
Rain since
9am
mm
Dir  Spd
kts
Gust
kts
Height
m
Period
s
Dir
08/06:00pm NE 5 6 - - - - 10 Clear - 29.9 1002.2 0.0
08/05:30pm NE 5 6 - - - - 10 - - 30.1 1002.1 0.0
08/05:00pm NE 4 7 - - - - 10 - - 30.4 1001.8 0.0
08/04:30pm NE 6 8 - - - - 10 Partly cloudy - 30.5 1001.5 0.0
08/04:00pm NNE 6 8 - - - - 10 - - 31.7 1001.7 0.0
08/03:30pm ENE 6 7 - - - - 10 - - 31.0 1002.0 0.0
08/03:00pm NNE 7 8 - - - - 10 - - 31.1 1002.2 0.0
08/02:30pm NE 7 9 - - - - 10 - - 31.2 1002.5 0.0
08/02:00pm NE 6 9 - - - - 10 - - 31.5 1002.9 0.0
08/01:30pm NE 7 9 - - - - 10 - - 31.5 1003.3 0.0
08/01:00pm ENE 6 8 - - - - 10 - - 31.5 1003.8 0.0
08/12:30pm E 5 8 - - - - 10 - - 31.5 1004.2 0.0
08/12:00pm E 7 9 - - - - 10 - - 31.6 1004.6 0.0
08/11:30am ESE 6 10 - - - - 10 - - 32.3 1004.8 0.0
08/11:00am ESE 5 9 - - - - 10 Partly cloudy - 31.8 1005.0 0.0
08/10:30am ESE 4 7 - - - - 10 Partly cloudy - 31.4 1005.3 0.0
08/10:00am SSW 1 5 - - - - 10 - - 31.1 1005.6 0.0
08/09:30am CALM 0 0 - - - - 10 - - 29.6 1005.7 0.0
08/09:00am SE 3 4 - - - - 10 - - 28.0 1005.7 0.0
08/08:30am SSE 4 5 - - - - 10 - - 27.3 1005.7 0.0
08/08:00am CALM 0 0 - - - - 10 - - 26.0 1005.2 0.0
08/07:30am CALM 0 0 - - - - 10 - - 24.4 1005.1 0.0
08/07:00am WNW 2 3 - - - - 10 - - 23.6 1004.7 0.0
08/06:30am NW 3 3 - - - - 10 - - 23.4 1004.4 0.0
08/06:00am NW 1 3 - - - - 10 - - 23.6 1004.3 0.0
08/05:30am CALM 0 4 - - - - 10 - - 23.5 1004.2 0.0
08/05:00am CALM 0 0 - - - - 10 - - 23.7 1003.9 0.0
08/04:30am CALM 0 0 - - - - 10 - - 24.1 1003.9 0.0
08/04:00am NW 1 3 - - - - 10 - - 23.9 1003.6 0.0
08/03:30am CALM 0 0 - - - - 10 Partly cloudy - 24.2 1003.9 0.0
08/03:00am NNW 3 4 - - - - 10 - - 24.0 1004.2 0.0
08/02:30am NNW 2 5 - - - - 10 - - 24.0 1004.2 0.0
08/02:00am CALM 0 0 - - - - 10 - - 24.3 1004.7 0.0
08/01:30am CALM 0 0 - - - - 10 - - 24.6 1005.0 0.0
08/01:00am CALM 0 0 - - - - 10 - - 24.5 1005.5 0.0
08/12:30am CALM 0 0 - - - - 10 - - 24.8 1006.1 0.0
08/12:00am CALM 0 0 - - - - 10 - - 24.9 1006.5 0.0
 
Date/Time
EST
Wind Sea
Height
m
Swell Vis
km
Cloud Weather Temp
°C
Press
MSL
hPa
Rain since
9am
mm
Dir  Spd
kts
Gust
kts
Height
m
Period
s
Dir
07/11:30pm CALM 0 0 - - - - 10 - - 25.0 1006.6 0.0
07/11:00pm CALM 0 0 - - - - 10 - - 25.0 1006.5 0.0
07/10:30pm CALM 0 0 - - - - 10 - - 25.2 1006.8 0.0
07/10:00pm CALM 0 0 - - - - 10 - - 25.4 1006.6 0.0
07/09:30pm CALM 0 0 - - - - 10 - - 25.5 1006.5 0.0
07/09:00pm NW 3 5 - - - - 10 - - 25.6 1006.4 0.0
07/08:30pm CALM 0 0 - - - - 10 - - 26.0 1006.0 0.0
07/08:00pm CALM 0 0 - - - - 10 - - 26.3 1005.5 0.0
07/07:30pm E 2 3 - - - - 10 - - 27.6 1005.3 0.0
07/07:00pm ESE 5 7 - - - - 10 Partly cloudy - 28.4 1005.1 0.0
07/06:30pm SE 6 9 - - - - 10 Partly cloudy - 29.0 1004.7 0.0
07/06:00pm ESE 6 8 - - - - 10 - - 29.8 1003.9 0.0
07/05:30pm E 7 10 - - - - 10 Partly cloudy - 30.3 1003.7 0.0
07/05:00pm E 7 9 - - - - 10 Partly cloudy - 29.8 1003.7 0.0
07/04:30pm E 6 9 - - - - 10 Partly cloudy - 30.0 1003.5 0.0
07/04:00pm E 6 8 - - - - 10 Partly cloudy - 30.0 1003.2 0.0
07/03:30pm ESE 8 12 - - - - 10 Partly cloudy - 29.7 1003.6 0.0
07/03:00pm E 7 10 - - - - 10 Partly cloudy - 30.0 1003.7 0.0
07/02:30pm E 10 14 - - - - 10 Partly cloudy - 29.9 1003.9 0.0
07/02:00pm SE 7 10 - - - - 10 Partly cloudy - 31.8 1004.2 0.0
07/01:30pm SE 8 11 - - - - 10 Partly cloudy - 31.5 1004.5 0.0
07/01:00pm SE 7 10 - - - - 10 Partly cloudy - 31.0 1004.9 0.0
07/12:30pm ESE 8 11 - - - - 10 Partly cloudy - 30.9 1005.3 0.0
07/12:00pm SSE 6 11 - - - - 10 Mostly clear - 31.6 1005.7 0.0
07/11:30am SE 5 9 - - - - 10 Partly cloudy - 31.0 1006.2 0.0
07/11:00am SSE 7 10 - - - - 10 Partly cloudy - 30.3 1006.8 0.0
07/10:30am SSE 8 9 - - - - 10 Partly cloudy - 30.9 1007.2 0.0
07/10:00am SW 5 7 - - - - 10 Partly cloudy - 29.9 1007.4 0.0
07/09:30am S 5 7 - - - - 10 Partly cloudy - 29.9 1007.5 0.0
07/09:00am SW 4 7 - - - - 10 Cloudy - 29.9 1007.4 0.0
07/08:30am WSW 4 5 - - - - 10 - - 28.0 1007.2 0.0
07/08:00am SSW 3 5 - - - - 10 - - 27.2 1007.0 0.0
07/07:30am CALM 0 0 - - - - 10 - - 25.8 1006.9 0.0
07/07:00am SW 4 6 - - - - 10 - - 25.3 1006.5 0.0
07/06:30am CALM 0 0 - - - - 10 Partly cloudy - 24.7 1005.9 0.0
07/06:00am CALM 0 0 - - - - 10 Mostly clear - 24.8 1005.7 0.0
07/05:30am CALM 0 0 - - - - 10 - - 25.2 1005.5 0.0
07/05:00am CALM 0 0 - - - - 10 - - 25.2 1005.1 0.0
07/04:30am N 1 4 - - - - 10 Partly cloudy - 25.2 1004.8 0.0
07/04:00am N 2 3 - - - - 10 Partly cloudy - 25.1 1004.9 0.0
07/03:30am CALM 0 0 - - - - 10 - - 25.1 1004.9 0.0
07/03:00am CALM 0 0 - - - - 10 - - 25.5 1005.1 0.0
07/02:30am CALM 0 0 - - - - 10 - - 25.4 1005.4 0.0
07/02:00am NW 3 5 - - - - 10 Partly cloudy - 25.7 1005.6 0.0
07/01:30am NW 3 4 - - - - 10 Partly cloudy - 25.6 1006.0 0.0
07/01:00am N 3 4 - - - - 10 Partly cloudy - 25.8 1006.3 0.0
07/12:30am W 1 3 - - - - 10 - - 26.3 1006.4 0.0
07/12:00am CALM 0 0 - - - - 10 Mostly cloudy - 26.5 1006.6 0.0
 
Date/Time
EST
Wind Sea
Height
m
Swell Vis
km
Cloud Weather Temp
°C
Press
MSL
hPa
Rain since
9am
mm
Dir  Spd
kts
Gust
kts
Height
m
Period
s
Dir
06/11:59pm CALM 0 0 - - - - 10 Partly cloudy - 26.5 1006.7 0.0
06/11:30pm NW 4 5 - - - - 10 Partly cloudy - 26.4 1007.0 0.0
06/11:24pm NW 4 5 - - - - 10 Partly cloudy - 26.5 1007.1 0.0
06/11:10pm CALM 0 0 - - - - 10 Partly cloudy - 26.5 1007.2 0.0
06/11:00pm N 2 3 - - - - 10 Partly cloudy - 26.3 1007.1 0.0
06/10:37pm NW 4 4 - - - - 10 Partly cloudy - 26.7 1007.4 0.0
06/10:35pm NW 4 4 - - - - 10 Partly cloudy - 26.7 1007.4 0.0
06/10:30pm NW 2 4 - - - - 10 Partly cloudy - 26.7 1007.5 0.0
06/10:02pm CALM 0 0 - - - - 10 Partly cloudy - 26.4 1007.3 0.0
06/10:00pm CALM 0 0 - - - - 10 Partly cloudy - 26.6 1007.3 0.0
06/09:30pm CALM 0 0 - - - - 10 Partly cloudy - 26.5 1007.1 0.0
06/09:00pm CALM 0 0 - - - - 10 Mostly clear - 26.8 1007.1 0.0
06/08:30pm CALM 0 0 - - - - 10 Partly cloudy - 27.1 1006.8 0.0
06/08:00pm E 1 4 - - - - 10 - - 27.1 1006.7 0.0
06/07:30pm CALM 0 0 - - - - 10 - - 28.1 1006.2 0.0
06/07:00pm E 4 6 - - - - 10 - - 28.7 1005.8 0.0
06/06:30pm E 6 8 - - - - 10 - - 29.2 1005.5 0.0
06/06:00pm ENE 5 7 - - - - 10 - - 29.7 1005.2 0.0
06/05:30pm E 5 8 - - - - 10 Partly cloudy - 30.3 1004.7 0.0
06/05:00pm NE 7 9 - - - - 10 Partly cloudy - 30.4 1004.6 0.0
06/04:30pm E 7 11 - - - - 10 - - 31.1 1004.4 0.0
06/04:00pm ENE 8 14 - - - - 10 Partly cloudy - 31.0 1004.6 0.0
06/03:30pm E 7 11 - - - - 10 Partly cloudy - 31.7 1004.8 0.0
06/03:00pm ENE 8 12 - - - - 10 - - 31.5 1004.8 0.0
06/02:30pm ENE 8 11 - - - - 10 Partly cloudy - 31.5 1005.3 0.0
06/02:00pm E 9 11 - - - - 10 - - 31.5 1005.7 0.0
06/01:30pm E 7 9 - - - - 10 - - 31.9 1006.1 0.0
06/01:00pm E 9 12 - - - - 10 - - 31.3 1006.4 0.0
06/12:30pm E 8 11 - - - - 10 - - 31.8 1006.7 0.0
06/12:00pm E 7 11 - - - - 10 Mostly clear - 32.1 1007.1 0.0
06/11:30am ESE 5 10 - - - - 10 Partly cloudy - 32.3 1007.4 0.0
06/11:00am ESE 4 7 - - - - 10 Partly cloudy - 31.7 1007.8 0.0
06/10:30am ESE 3 6 - - - - 10 Cloudy - 31.3 1008.0 0.0
06/10:00am N 2 4 - - - - 10 Cloudy - 29.7 1008.1 0.0
06/09:30am NW 2 5 - - - - 10 Cloudy - 28.7 1008.3 0.0
06/09:00am NNW 4 6 - - - - 10 Cloudy - 28.2 1008.4 0.0
06/08:30am SW 1 3 - - - - 10 Cloudy - 27.6 1008.3 0.0
06/08:00am CALM 0 0 - - - - 10 Cloudy - 26.7 1008.1 0.0
06/07:30am SSE 3 3 - - - - 10 Cloudy - 26.1 1007.9 0.0
06/07:00am CALM 0 0 - - - - 10 Cloudy - 24.9 1007.4 0.0
06/06:30am CALM 0 0 - - - - 10 Cloudy - 24.4 1007.0 0.0
06/06:00am CALM 0 0 - - - - 10 Cloudy - 24.0 1006.7 0.0
06/05:30am CALM 0 0 - - - - 10 Partly cloudy - 24.1 1006.2 0.0
06/05:00am CALM 0 0 - - - - 10 - - 24.1 1005.9 0.0
06/04:30am CALM 0 0 - - - - 10 Partly cloudy - 24.1 1005.8 0.0
06/04:00am CALM 0 4 - - - - 10 - - 24.2 1005.8 0.0
06/03:30am CALM 0 0 - - - - 10 - - 24.4 1005.9 0.0
06/03:00am NW 3 3 - - - - 10 - - 24.5 1005.9 0.0
06/02:30am CALM 0 0 - - - - 10 - - 24.7 1005.9 0.0
06/02:00am SW 1 3 - - - - 10 - - 24.7 1005.9 0.0
06/01:30am CALM 0 0 - - - - 10 - - 24.9 1006.3 0.0
06/01:00am CALM 0 0 - - - - 10 - - 25.0 1006.5 0.0
06/12:30am CALM 0 0 - - - - 10 - - 25.2 1006.8 0.0
06/12:00am CALM 0 0 - - - - 10 - - 25.9 1007.1 0.0
 
Date/Time
EST
Wind Sea
Height
m
Swell Vis
km
Cloud Weather Temp
°C
Press
MSL
hPa
Rain since
9am
mm
Dir  Spd
kts
Gust
kts
Height
m
Period
s
Dir
05/11:30pm CALM 0 0 - - - - 10 - - 25.9 1007.2 0.0
05/11:00pm CALM 0 0 - - - - 10 - - 26.1 1007.2 0.0
05/10:30pm CALM 0 0 - - - - 10 - - 26.4 1006.9 0.0
05/10:00pm CALM 0 0 - - - - 10 - - 26.8 1006.6 0.0
05/09:30pm NNW 2 3 - - - - 10 - - 26.7 1006.3 0.0
05/09:00pm WNW 3 4 - - - - 10 Cloudy - 26.9 1006.0 0.0
05/08:30pm NW 3 5 - - - - 10 - - 27.1 1005.8 0.0
05/08:00pm NW 5 6 - - - - 10 - - 27.2 1005.5 0.0
05/07:30pm N 5 7 - - - - 10 - - 27.8 1005.4 0.0
05/07:00pm N 5 7 - - - - 10 - - 28.2 1005.0 0.0
05/06:30pm N 5 8 - - - - 10 - - 29.2 1004.7 0.0

Other formats

Comma delimited format used in spreadsheet applications
http://www.bom.gov.au/fwo/IDQ60701/IDQ60701.94186.axf

JavaScript Object Notation format (JSON) in row-major order
http://www.bom.gov.au/fwo/IDQ60701/IDQ60701.94186.json

Data quality

Most of these data are generated automatically and are frequently updated. Quality checks on data are not normally performed. It is possible for incorrect values to appear. Refer to information at About Latest Weather Observations and please check the disclaimer before using these data.